sensor_id;sensor_type;location;lat;lon;timestamp;P1;durP1;ratioP1;P2;durP2;ratioP2
55146;SDS011;41039;49.830;23.988;2023-08-21T00:01:26;37.80;;;26.27;;
55146;SDS011;41039;49.830;23.988;2023-08-21T00:03:51;44.53;;;28.80;;
55146;SDS011;41039;49.830;23.988;2023-08-21T00:06:16;36.47;;;24.57;;
55146;SDS011;41039;49.830;23.988;2023-08-21T00:08:42;28.27;;;22.23;;
55146;SDS011;41039;49.830;23.988;2023-08-21T00:11:07;30.23;;;24.37;;
55146;SDS011;41039;49.830;23.988;2023-08-21T00:13:32;28.67;;;22.10;;
55146;SDS011;41039;49.830;23.988;2023-08-21T00:15:57;28.33;;;22.07;;
55146;SDS011;41039;49.830;23.988;2023-08-21T00:18:22;26.97;;;21.57;;
55146;SDS011;41039;49.830;23.988;2023-08-21T00:20:48;33.57;;;21.37;;
55146;SDS011;41039;49.830;23.988;2023-08-21T00:23:13;27.23;;;21.30;;
55146;SDS011;41039;49.830;23.988;2023-08-21T00:25:38;28.50;;;22.15;;
55146;SDS011;41039;49.830;23.988;2023-08-21T00:28:04;29.30;;;23.77;;
55146;SDS011;41039;49.830;23.988;2023-08-21T00:30:29;31.50;;;24.55;;
55146;SDS011;41039;49.830;23.988;2023-08-21T00:32:54;34.85;;;27.40;;
55146;SDS011;41039;49.830;23.988;2023-08-21T00:35:20;34.30;;;26.10;;
55146;SDS011;41039;49.830;23.988;2023-08-21T00:37:45;33.27;;;26.00;;
55146;SDS011;41039;49.830;23.988;2023-08-21T00:40:11;31.88;;;25.80;;
55146;SDS011;41039;49.830;23.988;2023-08-21T00:42:37;34.43;;;26.30;;
55146;SDS011;41039;49.830;23.988;2023-08-21T00:45:02;35.25;;;25.17;;
55146;SDS011;41039;49.830;23.988;2023-08-21T00:47:28;28.63;;;21.33;;
55146;SDS011;41039;49.830;23.988;2023-08-21T00:49:53;29.47;;;21.73;;
55146;SDS011;41039;49.830;23.988;2023-08-21T00:52:18;25.85;;;19.77;;
55146;SDS011;41039;49.830;23.988;2023-08-21T00:54:43;24.65;;;18.08;;
55146;SDS011;41039;49.830;23.988;2023-08-21T00:57:09;21.00;;;17.13;;
55146;SDS011;41039;49.830;23.988;2023-08-21T00:59:35;17.05;;;15.25;;
55146;SDS011;41039;49.830;23.988;2023-08-21T01:02:00;16.20;;;14.32;;
55146;SDS011;41039;49.830;23.988;2023-08-21T01:04:25;17.75;;;15.52;;
55146;SDS011;41039;49.830;23.988;2023-08-21T01:06:50;17.33;;;15.10;;
55146;SDS011;41039;49.830;23.988;2023-08-21T01:14:29;22.60;;;15.90;;
55146;SDS011;41039;49.830;23.988;2023-08-21T01:16:57;19.33;;;16.10;;
55146;SDS011;41039;49.830;23.988;2023-08-21T01:19:43;18.02;;;15.98;;
55146;SDS011;41039;49.830;23.988;2023-08-21T01:22:08;17.95;;;15.10;;
55146;SDS011;41039;49.830;23.988;2023-08-21T01:24:34;15.67;;;14.07;;
55146;SDS011;41039;49.830;23.988;2023-08-21T01:26:59;15.00;;;13.40;;
55146;SDS011;41039;49.830;23.988;2023-08-21T01:29:25;15.13;;;12.88;;
55146;SDS011;41039;49.830;23.988;2023-08-21T01:34:24;14.10;;;12.50;;
55146;SDS011;41039;49.830;23.988;2023-08-21T01:36:51;13.82;;;12.43;;
55146;SDS011;41039;49.830;23.988;2023-08-21T01:39:16;13.85;;;12.45;;
55146;SDS011;41039;49.830;23.988;2023-08-21T01:41:42;13.32;;;11.95;;
55146;SDS011;41039;49.830;23.988;2023-08-21T01:44:07;13.00;;;11.80;;
55146;SDS011;41039;49.830;23.988;2023-08-21T01:46:33;13.47;;;11.83;;
55146;SDS011;41039;49.830;23.988;2023-08-21T01:48:58;13.75;;;12.40;;
55146;SDS011;41039;49.830;23.988;2023-08-21T01:51:23;15.33;;;12.83;;
55146;SDS011;41039;49.830;23.988;2023-08-21T01:53:48;15.43;;;12.53;;
55146;SDS011;41039;49.830;23.988;2023-08-21T01:56:14;14.10;;;12.60;;
55146;SDS011;41039;49.830;23.988;2023-08-21T01:58:39;16.00;;;12.82;;
55146;SDS011;41039;49.830;23.988;2023-08-21T02:01:04;15.30;;;12.63;;
55146;SDS011;41039;49.830;23.988;2023-08-21T02:03:30;14.85;;;13.13;;
55146;SDS011;41039;49.830;23.988;2023-08-21T02:05:56;14.50;;;12.15;;
55146;SDS011;41039;49.830;23.988;2023-08-21T02:08:26;14.75;;;12.52;;
55146;SDS011;41039;49.830;23.988;2023-08-21T02:10:52;15.88;;;12.93;;
55146;SDS011;41039;49.830;23.988;2023-08-21T02:13:18;17.02;;;14.88;;
55146;SDS011;41039;49.830;23.988;2023-08-21T02:15:43;20.00;;;15.82;;
55146;SDS011;41039;49.830;23.988;2023-08-21T02:18:08;18.47;;;15.40;;
55146;SDS011;41039;49.830;23.988;2023-08-21T02:20:34;16.65;;;14.77;;
55146;SDS011;41039;49.830;23.988;2023-08-21T02:22:59;15.90;;;14.30;;
55146;SDS011;41039;49.830;23.988;2023-08-21T02:25:24;18.20;;;15.63;;
55146;SDS011;41039;49.830;23.988;2023-08-21T02:27:50;18.43;;;15.73;;
55146;SDS011;41039;49.830;23.988;2023-08-21T02:30:15;16.67;;;14.97;;
55146;SDS011;41039;49.830;23.988;2023-08-21T02:32:40;15.88;;;13.63;;
55146;SDS011;41039;49.830;23.988;2023-08-21T02:35:06;16.75;;;14.48;;
55146;SDS011;41039;49.830;23.988;2023-08-21T02:37:31;20.42;;;15.75;;
55146;SDS011;41039;49.830;23.988;2023-08-21T02:39:57;16.93;;;15.13;;
55146;SDS011;41039;49.830;23.988;2023-08-21T02:42:22;21.13;;;16.90;;
55146;SDS011;41039;49.830;23.988;2023-08-21T02:44:47;19.53;;;17.07;;
55146;SDS011;41039;49.830;23.988;2023-08-21T02:47:12;19.27;;;17.00;;
55146;SDS011;41039;49.830;23.988;2023-08-21T02:49:37;25.02;;;18.00;;
55146;SDS011;41039;49.830;23.988;2023-08-21T02:52:03;19.20;;;17.03;;
55146;SDS011;41039;49.830;23.988;2023-08-21T02:54:28;21.50;;;17.88;;
55146;SDS011;41039;49.830;23.988;2023-08-21T02:56:53;21.23;;;18.07;;
55146;SDS011;41039;49.830;23.988;2023-08-21T02:59:18;20.73;;;17.67;;
55146;SDS011;41039;49.830;23.988;2023-08-21T03:01:44;28.00;;;17.70;;
55146;SDS011;41039;49.830;23.988;2023-08-21T03:04:09;20.17;;;17.27;;
55146;SDS011;41039;49.830;23.988;2023-08-21T03:06:34;21.65;;;16.88;;
55146;SDS011;41039;49.830;23.988;2023-08-21T03:08:59;23.60;;;18.17;;
55146;SDS011;41039;49.830;23.988;2023-08-21T03:11:25;19.60;;;17.23;;
55146;SDS011;41039;49.830;23.988;2023-08-21T03:13:50;19.73;;;16.73;;
55146;SDS011;41039;49.830;23.988;2023-08-21T03:16:15;21.53;;;16.13;;
55146;SDS011;41039;49.830;23.988;2023-08-21T03:18:53;17.67;;;15.77;;
55146;SDS011;41039;49.830;23.988;2023-08-21T03:21:19;18.27;;;15.75;;
55146;SDS011;41039;49.830;23.988;2023-08-21T03:23:44;20.37;;;15.17;;
55146;SDS011;41039;49.830;23.988;2023-08-21T03:26:09;18.13;;;14.40;;
55146;SDS011;41039;49.830;23.988;2023-08-21T03:28:34;17.67;;;14.70;;
55146;SDS011;41039;49.830;23.988;2023-08-21T03:31:00;17.47;;;14.77;;
55146;SDS011;41039;49.830;23.988;2023-08-21T03:33:25;17.80;;;14.20;;
55146;SDS011;41039;49.830;23.988;2023-08-21T03:35:53;18.17;;;14.50;;
55146;SDS011;41039;49.830;23.988;2023-08-21T03:38:18;15.32;;;13.60;;
55146;SDS011;41039;49.830;23.988;2023-08-21T03:40:43;16.35;;;13.85;;
55146;SDS011;41039;49.830;23.988;2023-08-21T03:43:09;19.27;;;13.38;;
55146;SDS011;41039;49.830;23.988;2023-08-21T03:45:34;17.65;;;12.73;;
55146;SDS011;41039;49.830;23.988;2023-08-21T03:47:59;15.07;;;13.47;;
55146;SDS011;41039;49.830;23.988;2023-08-21T03:50:24;14.47;;;12.90;;
55146;SDS011;41039;49.830;23.988;2023-08-21T03:52:50;14.07;;;12.67;;
55146;SDS011;41039;49.830;23.988;2023-08-21T03:55:15;14.37;;;12.97;;
55146;SDS011;41039;49.830;23.988;2023-08-21T03:57:40;14.93;;;13.43;;
55146;SDS011;41039;49.830;23.988;2023-08-21T04:00:05;16.73;;;13.85;;
55146;SDS011;41039;49.830;23.988;2023-08-21T04:02:32;13.57;;;12.18;;
55146;SDS011;41039;49.830;23.988;2023-08-21T04:04:58;14.55;;;13.05;;
55146;SDS011;41039;49.830;23.988;2023-08-21T04:07:23;15.20;;;13.68;;
55146;SDS011;41039;49.830;23.988;2023-08-21T04:09:48;13.20;;;12.00;;
55146;SDS011;41039;49.830;23.988;2023-08-21T04:12:13;14.97;;;13.43;;
55146;SDS011;41039;49.830;23.988;2023-08-21T04:14:39;14.95;;;13.20;;
55146;SDS011;41039;49.830;23.988;2023-08-21T04:17:04;14.67;;;13.27;;
55146;SDS011;41039;49.830;23.988;2023-08-21T04:19:29;14.18;;;12.68;;
55146;SDS011;41039;49.830;23.988;2023-08-21T04:21:57;17.45;;;13.38;;
55146;SDS011;41039;49.830;23.988;2023-08-21T04:24:24;14.55;;;13.10;;
55146;SDS011;41039;49.830;23.988;2023-08-21T04:26:49;16.00;;;14.30;;
55146;SDS011;41039;49.830;23.988;2023-08-21T04:29:14;14.68;;;13.23;;
55146;SDS011;41039;49.830;23.988;2023-08-21T04:31:39;14.57;;;12.80;;
55146;SDS011;41039;49.830;23.988;2023-08-21T04:34:04;14.23;;;12.90;;
55146;SDS011;41039;49.830;23.988;2023-08-21T04:36:30;14.90;;;13.18;;
55146;SDS011;41039;49.830;23.988;2023-08-21T04:38:56;14.27;;;12.75;;
55146;SDS011;41039;49.830;23.988;2023-08-21T04:41:21;16.25;;;14.27;;
55146;SDS011;41039;49.830;23.988;2023-08-21T04:43:46;16.27;;;14.23;;
55146;SDS011;41039;49.830;23.988;2023-08-21T04:46:11;16.57;;;14.87;;
55146;SDS011;41039;49.830;23.988;2023-08-21T04:48:36;19.40;;;16.65;;
55146;SDS011;41039;49.830;23.988;2023-08-21T04:51:02;16.07;;;14.37;;
55146;SDS011;41039;49.830;23.988;2023-08-21T04:53:27;14.70;;;13.20;;
55146;SDS011;41039;49.830;23.988;2023-08-21T04:55:52;17.10;;;13.32;;
55146;SDS011;41039;49.830;23.988;2023-08-21T04:58:18;16.30;;;14.10;;
55146;SDS011;41039;49.830;23.988;2023-08-21T05:00:44;14.20;;;12.70;;
55146;SDS011;41039;49.830;23.988;2023-08-21T05:03:09;14.30;;;12.82;;
55146;SDS011;41039;49.830;23.988;2023-08-21T05:05:35;14.50;;;13.00;;
55146;SDS011;41039;49.830;23.988;2023-08-21T05:08:00;15.57;;;13.23;;
55146;SDS011;41039;49.830;23.988;2023-08-21T05:10:25;15.17;;;13.67;;
55146;SDS011;41039;49.830;23.988;2023-08-21T05:12:50;15.93;;;14.33;;
55146;SDS011;41039;49.830;23.988;2023-08-21T05:15:16;15.50;;;14.00;;
55146;SDS011;41039;49.830;23.988;2023-08-21T05:17:41;14.95;;;13.43;;
55146;SDS011;41039;49.830;23.988;2023-08-21T05:20:07;24.67;;;18.57;;
55146;SDS011;41039;49.830;23.988;2023-08-21T05:22:32;19.65;;;14.00;;
55146;SDS011;41039;49.830;23.988;2023-08-21T05:24:57;20.00;;;15.60;;
55146;SDS011;41039;49.830;23.988;2023-08-21T05:27:23;23.17;;;14.53;;
55146;SDS011;41039;49.830;23.988;2023-08-21T05:29:48;15.55;;;13.95;;
55146;SDS011;41039;49.830;23.988;2023-08-21T05:32:15;15.13;;;13.40;;
55146;SDS011;41039;49.830;23.988;2023-08-21T05:34:41;16.45;;;13.85;;
55146;SDS011;41039;49.830;23.988;2023-08-21T05:37:06;20.60;;;15.02;;
55146;SDS011;41039;49.830;23.988;2023-08-21T05:39:32;20.92;;;15.98;;
55146;SDS011;41039;49.830;23.988;2023-08-21T05:41:57;23.00;;;15.30;;
55146;SDS011;41039;49.830;23.988;2023-08-21T05:44:23;23.30;;;16.60;;
55146;SDS011;41039;49.830;23.988;2023-08-21T05:46:48;20.65;;;17.73;;
55146;SDS011;41039;49.830;23.988;2023-08-21T05:49:14;30.42;;;18.50;;
55146;SDS011;41039;49.830;23.988;2023-08-21T05:51:39;24.33;;;17.70;;
55146;SDS011;41039;49.830;23.988;2023-08-21T05:54:04;23.53;;;16.70;;
55146;SDS011;41039;49.830;23.988;2023-08-21T05:56:29;29.73;;;18.92;;
55146;SDS011;41039;49.830;23.988;2023-08-21T05:58:55;24.07;;;17.97;;
55146;SDS011;41039;49.830;23.988;2023-08-21T06:01:20;25.23;;;18.97;;
55146;SDS011;41039;49.830;23.988;2023-08-21T06:03:45;24.77;;;19.47;;
55146;SDS011;41039;49.830;23.988;2023-08-21T06:06:10;32.00;;;19.53;;
55146;SDS011;41039;49.830;23.988;2023-08-21T06:08:36;23.40;;;17.85;;
55146;SDS011;41039;49.830;23.988;2023-08-21T06:11:01;32.28;;;19.05;;
55146;SDS011;41039;49.830;23.988;2023-08-21T06:13:26;27.93;;;17.37;;
55146;SDS011;41039;49.830;23.988;2023-08-21T06:15:52;26.53;;;17.33;;
55146;SDS011;41039;49.830;23.988;2023-08-21T06:18:17;22.63;;;15.88;;
55146;SDS011;41039;49.830;23.988;2023-08-21T06:20:42;22.77;;;16.50;;
55146;SDS011;41039;49.830;23.988;2023-08-21T06:23:08;16.55;;;13.45;;
55146;SDS011;41039;49.830;23.988;2023-08-21T06:25:34;20.90;;;15.57;;
55146;SDS011;41039;49.830;23.988;2023-08-21T06:27:59;21.53;;;14.40;;
55146;SDS011;41039;49.830;23.988;2023-08-21T06:30:25;21.50;;;16.73;;
55146;SDS011;41039;49.830;23.988;2023-08-21T06:32:50;20.85;;;16.23;;
55146;SDS011;41039;49.830;23.988;2023-08-21T06:35:15;20.37;;;15.63;;
55146;SDS011;41039;49.830;23.988;2023-08-21T06:37:41;18.48;;;14.73;;
55146;SDS011;41039;49.830;23.988;2023-08-21T06:40:06;22.57;;;16.27;;
55146;SDS011;41039;49.830;23.988;2023-08-21T06:42:32;18.92;;;15.00;;
55146;SDS011;41039;49.830;23.988;2023-08-21T06:44:57;18.45;;;14.38;;
55146;SDS011;41039;49.830;23.988;2023-08-21T06:47:22;18.27;;;12.73;;
55146;SDS011;41039;49.830;23.988;2023-08-21T06:49:47;15.27;;;13.43;;
55146;SDS011;41039;49.830;23.988;2023-08-21T06:52:13;14.10;;;12.50;;
55146;SDS011;41039;49.830;23.988;2023-08-21T06:54:38;14.43;;;12.93;;
55146;SDS011;41039;49.830;23.988;2023-08-21T06:57:03;14.67;;;12.23;;
55146;SDS011;41039;49.830;23.988;2023-08-21T06:59:28;16.80;;;12.90;;
55146;SDS011;41039;49.830;23.988;2023-08-21T07:01:54;15.55;;;12.82;;
55146;SDS011;41039;49.830;23.988;2023-08-21T07:04:19;13.80;;;12.43;;
55146;SDS011;41039;49.830;23.988;2023-08-21T07:06:44;14.37;;;12.27;;
55146;SDS011;41039;49.830;23.988;2023-08-21T07:09:09;14.23;;;12.93;;
55146;SDS011;41039;49.830;23.988;2023-08-21T07:11:35;14.85;;;12.18;;
55146;SDS011;41039;49.830;23.988;2023-08-21T07:14:00;12.48;;;11.27;;
55146;SDS011;41039;49.830;23.988;2023-08-21T07:16:25;12.63;;;11.17;;
55146;SDS011;41039;49.830;23.988;2023-08-21T07:18:53;14.73;;;11.00;;
55146;SDS011;41039;49.830;23.988;2023-08-21T07:21:18;11.00;;;10.00;;
55146;SDS011;41039;49.830;23.988;2023-08-21T07:23:44;11.10;;;10.00;;
55146;SDS011;41039;49.830;23.988;2023-08-21T07:26:09;10.83;;;9.37;;
55146;SDS011;41039;49.830;23.988;2023-08-21T07:28:34;10.47;;;9.37;;
55146;SDS011;41039;49.830;23.988;2023-08-21T07:31:00;11.23;;;10.00;;
55146;SDS011;41039;49.830;23.988;2023-08-21T07:33:25;9.70;;;8.80;;
55146;SDS011;41039;49.830;23.988;2023-08-21T07:35:58;12.35;;;8.88;;
55146;SDS011;41039;49.830;23.988;2023-08-21T07:38:23;10.25;;;8.38;;
55146;SDS011;41039;49.830;23.988;2023-08-21T07:40:49;15.43;;;9.65;;
55146;SDS011;41039;49.830;23.988;2023-08-21T07:43:14;9.97;;;8.90;;
55146;SDS011;41039;49.830;23.988;2023-08-21T07:45:39;11.07;;;9.57;;
55146;SDS011;41039;49.830;23.988;2023-08-21T07:48:04;9.70;;;8.37;;
55146;SDS011;41039;49.830;23.988;2023-08-21T07:50:30;9.75;;;8.80;;
55146;SDS011;41039;49.830;23.988;2023-08-21T07:52:55;13.45;;;10.35;;
55146;SDS011;41039;49.830;23.988;2023-08-21T07:55:20;12.03;;;9.83;;
55146;SDS011;41039;49.830;23.988;2023-08-21T07:57:45;11.43;;;9.13;;
55146;SDS011;41039;49.830;23.988;2023-08-21T08:00:11;10.70;;;8.70;;
55146;SDS011;41039;49.830;23.988;2023-08-21T08:02:37;11.20;;;9.95;;
55146;SDS011;41039;49.830;23.988;2023-08-21T08:05:02;10.87;;;9.77;;
55146;SDS011;41039;49.830;23.988;2023-08-21T08:07:28;11.55;;;10.35;;
55146;SDS011;41039;49.830;23.988;2023-08-21T08:09:53;12.57;;;9.95;;
55146;SDS011;41039;49.830;23.988;2023-08-21T08:12:19;11.47;;;10.27;;
55146;SDS011;41039;49.830;23.988;2023-08-21T08:14:44;10.57;;;9.52;;
55146;SDS011;41039;49.830;23.988;2023-08-21T08:17:09;12.33;;;11.03;;
55146;SDS011;41039;49.830;23.988;2023-08-21T08:19:34;13.73;;;9.97;;
55146;SDS011;41039;49.830;23.988;2023-08-21T08:22:00;11.53;;;10.33;;
55146;SDS011;41039;49.830;23.988;2023-08-21T08:24:25;10.50;;;9.40;;
55146;SDS011;41039;49.830;23.988;2023-08-21T08:26:50;11.07;;;10.07;;
55146;SDS011;41039;49.830;23.988;2023-08-21T08:29:15;11.18;;;8.77;;
55146;SDS011;41039;49.830;23.988;2023-08-21T08:31:40;10.80;;;9.70;;
55146;SDS011;41039;49.830;23.988;2023-08-21T08:34:06;10.60;;;9.50;;
55146;SDS011;41039;49.830;23.988;2023-08-21T08:36:31;9.67;;;8.67;;
55146;SDS011;41039;49.830;23.988;2023-08-21T08:38:56;10.45;;;9.32;;
55146;SDS011;41039;49.830;23.988;2023-08-21T08:41:38;11.63;;;9.97;;
55146;SDS011;41039;49.830;23.988;2023-08-21T08:44:06;13.02;;;11.13;;
55146;SDS011;41039;49.830;23.988;2023-08-21T08:46:31;10.45;;;9.50;;
55146;SDS011;41039;49.830;23.988;2023-08-21T08:48:57;11.70;;;10.50;;
55146;SDS011;41039;49.830;23.988;2023-08-21T08:51:24;12.25;;;9.68;;
55146;SDS011;41039;49.830;23.988;2023-08-21T08:53:49;10.05;;;9.07;;
55146;SDS011;41039;49.830;23.988;2023-08-21T08:56:14;10.77;;;9.70;;
55146;SDS011;41039;49.830;23.988;2023-08-21T08:58:40;9.90;;;8.90;;
55146;SDS011;41039;49.830;23.988;2023-08-21T09:01:07;9.93;;;8.95;;
55146;SDS011;41039;49.830;23.988;2023-08-21T09:03:33;11.30;;;9.43;;
55146;SDS011;41039;49.830;23.988;2023-08-21T09:05:58;14.03;;;8.77;;
55146;SDS011;41039;49.830;23.988;2023-08-21T09:08:25;9.52;;;8.35;;
55146;SDS011;41039;49.830;23.988;2023-08-21T09:10:50;10.00;;;9.10;;
55146;SDS011;41039;49.830;23.988;2023-08-21T09:13:16;9.77;;;8.80;;
55146;SDS011;41039;49.830;23.988;2023-08-21T09:15:42;11.57;;;9.43;;
55146;SDS011;41039;49.830;23.988;2023-08-21T09:18:09;9.57;;;8.57;;
55146;SDS011;41039;49.830;23.988;2023-08-21T09:20:34;10.85;;;9.57;;
55146;SDS011;41039;49.830;23.988;2023-08-21T09:23:00;9.82;;;8.82;;
55146;SDS011;41039;49.830;23.988;2023-08-21T09:25:25;9.73;;;8.73;;
55146;SDS011;41039;49.830;23.988;2023-08-21T09:27:51;10.68;;;9.40;;
55146;SDS011;41039;49.830;23.988;2023-08-21T09:30:16;9.95;;;8.60;;
55146;SDS011;41039;49.830;23.988;2023-08-21T09:32:57;9.43;;;8.53;;
55146;SDS011;41039;49.830;23.988;2023-08-21T09:35:24;12.10;;;8.68;;
55146;SDS011;41039;49.830;23.988;2023-08-21T09:37:51;9.70;;;8.70;;
55146;SDS011;41039;49.830;23.988;2023-08-21T09:40:18;9.27;;;8.48;;
55146;SDS011;41039;49.830;23.988;2023-08-21T09:42:43;13.25;;;8.60;;
55146;SDS011;41039;49.830;23.988;2023-08-21T09:45:08;10.02;;;8.30;;
55146;SDS011;41039;49.830;23.988;2023-08-21T09:47:34;10.38;;;8.85;;
55146;SDS011;41039;49.830;23.988;2023-08-21T09:50:00;8.68;;;7.75;;
55146;SDS011;41039;49.830;23.988;2023-08-21T09:52:25;9.27;;;8.27;;
55146;SDS011;41039;49.830;23.988;2023-08-21T09:54:51;10.40;;;8.57;;
55146;SDS011;41039;49.830;23.988;2023-08-21T09:57:18;9.27;;;8.38;;
55146;SDS011;41039;49.830;23.988;2023-08-21T09:59:46;9.05;;;8.05;;
55146;SDS011;41039;49.830;23.988;2023-08-21T10:02:12;10.40;;;8.02;;
55146;SDS011;41039;49.830;23.988;2023-08-21T10:04:37;9.57;;;8.35;;
55146;SDS011;41039;49.830;23.988;2023-08-21T10:07:05;9.38;;;7.55;;
55146;SDS011;41039;49.830;23.988;2023-08-21T10:09:30;10.90;;;8.73;;
55146;SDS011;41039;49.830;23.988;2023-08-21T10:11:56;10.88;;;8.55;;
55146;SDS011;41039;49.830;23.988;2023-08-21T10:14:22;9.82;;;8.85;;
55146;SDS011;41039;49.830;23.988;2023-08-21T10:16:49;9.15;;;8.25;;
55146;SDS011;41039;49.830;23.988;2023-08-21T10:19:15;10.02;;;9.00;;
55146;SDS011;41039;49.830;23.988;2023-08-21T10:21:42;9.93;;;7.97;;
55146;SDS011;41039;49.830;23.988;2023-08-21T10:24:11;10.15;;;8.23;;
55146;SDS011;41039;49.830;23.988;2023-08-21T10:26:38;7.85;;;7.15;;
55146;SDS011;41039;49.830;23.988;2023-08-21T10:29:03;10.18;;;9.20;;
55146;SDS011;41039;49.830;23.988;2023-08-21T10:31:36;9.60;;;8.70;;
55146;SDS011;41039;49.830;23.988;2023-08-21T10:34:08;9.88;;;8.32;;
55146;SDS011;41039;49.830;23.988;2023-08-21T10:36:40;8.57;;;7.78;;
55146;SDS011;41039;49.830;23.988;2023-08-21T10:39:15;9.60;;;8.60;;
55146;SDS011;41039;49.830;23.988;2023-08-21T10:41:40;9.23;;;7.95;;
55146;SDS011;41039;49.830;23.988;2023-08-21T10:44:06;10.30;;;9.23;;
55146;SDS011;41039;49.830;23.988;2023-08-21T10:46:50;11.43;;;9.45;;
55146;SDS011;41039;49.830;23.988;2023-08-21T10:49:15;10.48;;;8.57;;
55146;SDS011;41039;49.830;23.988;2023-08-21T10:51:41;9.90;;;8.13;;
55146;SDS011;41039;49.830;23.988;2023-08-21T10:54:13;12.80;;;8.30;;
55146;SDS011;41039;49.830;23.988;2023-08-21T10:56:38;9.57;;;7.70;;
55146;SDS011;41039;49.830;23.988;2023-08-21T10:59:04;9.55;;;8.65;;
55146;SDS011;41039;49.830;23.988;2023-08-21T11:01:50;11.43;;;7.60;;
55146;SDS011;41039;49.830;23.988;2023-08-21T11:04:16;14.35;;;8.35;;
55146;SDS011;41039;49.830;23.988;2023-08-21T11:06:42;10.83;;;8.20;;
55146;SDS011;41039;49.830;23.988;2023-08-21T11:09:12;12.07;;;9.18;;
55146;SDS011;41039;49.830;23.988;2023-08-21T11:11:37;9.35;;;8.25;;
55146;SDS011;41039;49.830;23.988;2023-08-21T11:14:03;9.80;;;7.60;;
55146;SDS011;41039;49.830;23.988;2023-08-21T11:16:28;14.23;;;8.63;;
55146;SDS011;41039;49.830;23.988;2023-08-21T11:18:53;8.43;;;7.37;;
55146;SDS011;41039;49.830;23.988;2023-08-21T11:21:18;9.47;;;8.00;;
55146;SDS011;41039;49.830;23.988;2023-08-21T11:23:44;7.53;;;6.83;;
55146;SDS011;41039;49.830;23.988;2023-08-21T11:26:12;11.47;;;6.97;;
55146;SDS011;41039;49.830;23.988;2023-08-21T11:44:19;7.90;;;6.43;;
55146;SDS011;41039;49.830;23.988;2023-08-21T11:46:45;7.55;;;6.82;;
55146;SDS011;41039;49.830;23.988;2023-08-21T11:49:10;7.93;;;7.10;;
55146;SDS011;41039;49.830;23.988;2023-08-21T11:51:38;8.17;;;7.27;;
55146;SDS011;41039;49.830;23.988;2023-08-21T11:54:04;7.55;;;6.82;;
55146;SDS011;41039;49.830;23.988;2023-08-21T11:56:29;10.80;;;6.60;;
55146;SDS011;41039;49.830;23.988;2023-08-21T11:58:54;7.10;;;6.27;;
55146;SDS011;41039;49.830;23.988;2023-08-21T12:01:20;7.73;;;6.33;;
55146;SDS011;41039;49.830;23.988;2023-08-21T12:03:45;7.97;;;5.93;;
55146;SDS011;41039;49.830;23.988;2023-08-21T12:06:11;7.50;;;6.07;;
55146;SDS011;41039;49.830;23.988;2023-08-21T12:08:36;6.90;;;6.03;;
55146;SDS011;41039;49.830;23.988;2023-08-21T12:11:02;7.00;;;6.30;;
55146;SDS011;41039;49.830;23.988;2023-08-21T12:13:27;7.43;;;6.73;;
55146;SDS011;41039;49.830;23.988;2023-08-21T12:15:52;7.30;;;6.60;;
55146;SDS011;41039;49.830;23.988;2023-08-21T12:18:18;7.03;;;6.33;;
55146;SDS011;41039;49.830;23.988;2023-08-21T12:20:43;6.77;;;6.13;;
55146;SDS011;41039;49.830;23.988;2023-08-21T12:23:08;7.87;;;6.17;;
55146;SDS011;41039;49.830;23.988;2023-08-21T12:25:33;12.63;;;6.27;;
55146;SDS011;41039;49.830;23.988;2023-08-21T12:28:02;6.40;;;5.68;;
55146;SDS011;41039;49.830;23.988;2023-08-21T12:30:27;6.15;;;5.60;;
55146;SDS011;41039;49.830;23.988;2023-08-21T12:32:52;7.90;;;6.63;;
55146;SDS011;41039;49.830;23.988;2023-08-21T12:35:17;7.20;;;6.60;;
55146;SDS011;41039;49.830;23.988;2023-08-21T12:37:43;6.87;;;5.73;;
55146;SDS011;41039;49.830;23.988;2023-08-21T12:40:08;6.20;;;5.60;;
55146;SDS011;41039;49.830;23.988;2023-08-21T12:42:33;6.15;;;5.60;;
55146;SDS011;41039;49.830;23.988;2023-08-21T12:44:59;6.40;;;5.80;;
55146;SDS011;41039;49.830;23.988;2023-08-21T12:47:24;11.38;;;7.10;;
55146;SDS011;41039;49.830;23.988;2023-08-21T12:49:49;7.63;;;7.03;;
55146;SDS011;41039;49.830;23.988;2023-08-21T12:52:14;7.00;;;6.40;;
55146;SDS011;41039;49.830;23.988;2023-08-21T12:54:40;7.63;;;6.83;;
55146;SDS011;41039;49.830;23.988;2023-08-21T12:57:05;7.97;;;6.97;;
55146;SDS011;41039;49.830;23.988;2023-08-21T12:59:31;6.97;;;6.20;;
55146;SDS011;41039;49.830;23.988;2023-08-21T13:01:58;8.55;;;6.85;;
55146;SDS011;41039;49.830;23.988;2023-08-21T13:04:23;6.97;;;6.38;;
55146;SDS011;41039;49.830;23.988;2023-08-21T13:06:48;7.03;;;6.33;;
55146;SDS011;41039;49.830;23.988;2023-08-21T13:09:14;6.83;;;6.10;;
55146;SDS011;41039;49.830;23.988;2023-08-21T13:11:39;9.50;;;6.53;;
55146;SDS011;41039;49.830;23.988;2023-08-21T13:14:04;7.87;;;7.07;;
55146;SDS011;41039;49.830;23.988;2023-08-21T13:16:29;18.57;;;7.83;;
55146;SDS011;41039;49.830;23.988;2023-08-21T13:18:55;7.73;;;7.03;;
55146;SDS011;41039;49.830;23.988;2023-08-21T13:21:20;7.60;;;6.23;;
55146;SDS011;41039;49.830;23.988;2023-08-21T13:23:45;9.20;;;6.37;;
55146;SDS011;41039;49.830;23.988;2023-08-21T13:26:10;7.17;;;6.47;;
55146;SDS011;41039;49.830;23.988;2023-08-21T13:28:35;6.70;;;5.60;;
55146;SDS011;41039;49.830;23.988;2023-08-21T13:31:01;7.87;;;5.30;;
55146;SDS011;41039;49.830;23.988;2023-08-21T13:33:26;11.03;;;6.10;;
55146;SDS011;41039;49.830;23.988;2023-08-21T13:35:51;11.90;;;6.23;;
55146;SDS011;41039;49.830;23.988;2023-08-21T13:38:16;7.20;;;6.23;;
55146;SDS011;41039;49.830;23.988;2023-08-21T13:40:42;6.90;;;5.90;;
55146;SDS011;41039;49.830;23.988;2023-08-21T13:43:07;8.07;;;6.70;;
55146;SDS011;41039;49.830;23.988;2023-08-21T13:45:35;6.50;;;5.55;;
55146;SDS011;41039;49.830;23.988;2023-08-21T13:48:00;8.27;;;6.25;;
55146;SDS011;41039;49.830;23.988;2023-08-21T13:50:25;6.67;;;6.07;;
55146;SDS011;41039;49.830;23.988;2023-08-21T13:52:50;9.00;;;6.47;;
55146;SDS011;41039;49.830;23.988;2023-08-21T13:55:16;6.15;;;5.55;;
55146;SDS011;41039;49.830;23.988;2023-08-21T13:57:41;6.65;;;6.05;;
55146;SDS011;41039;49.830;23.988;2023-08-21T14:00:07;7.70;;;6.25;;
55146;SDS011;41039;49.830;23.988;2023-08-21T14:02:36;9.27;;;6.25;;
55146;SDS011;41039;49.830;23.988;2023-08-21T14:05:01;7.53;;;6.40;;
55146;SDS011;41039;49.830;23.988;2023-08-21T14:07:29;8.15;;;6.32;;
55146;SDS011;41039;49.830;23.988;2023-08-21T14:09:54;8.40;;;6.97;;
55146;SDS011;41039;49.830;23.988;2023-08-21T14:12:19;9.40;;;6.73;;
55146;SDS011;41039;49.830;23.988;2023-08-21T14:14:45;8.67;;;7.10;;
55146;SDS011;41039;49.830;23.988;2023-08-21T14:17:10;12.53;;;6.67;;
55146;SDS011;41039;49.830;23.988;2023-08-21T14:19:35;8.47;;;7.40;;
55146;SDS011;41039;49.830;23.988;2023-08-21T14:22:00;9.43;;;7.25;;
55146;SDS011;41039;49.830;23.988;2023-08-21T14:24:26;11.02;;;8.00;;
55146;SDS011;41039;49.830;23.988;2023-08-21T14:26:51;8.90;;;7.55;;
55146;SDS011;41039;49.830;23.988;2023-08-21T14:29:16;10.80;;;7.93;;
55146;SDS011;41039;49.830;23.988;2023-08-21T14:31:41;9.07;;;8.17;;
55146;SDS011;41039;49.830;23.988;2023-08-21T14:34:07;11.97;;;8.77;;